createdAt,value
2022-08-26T00:02:08.264Z,53.20
2022-08-26T00:04:37.163Z,53.40
2022-08-26T00:07:05.685Z,53.40
2022-08-26T00:09:38.902Z,53.40
2022-08-26T00:12:09.343Z,53.60
2022-08-26T00:14:40.557Z,53.80
2022-08-26T00:17:10.343Z,53.90
2022-08-26T00:19:38.396Z,54.00
2022-08-26T00:22:06.358Z,54.10
2022-08-26T00:24:34.444Z,54.00
2022-08-26T00:27:02.437Z,54.00
2022-08-26T00:29:32.029Z,54.40
2022-08-26T00:32:04.027Z,54.50
2022-08-26T00:34:35.034Z,54.30
2022-08-26T00:37:03.122Z,54.40
2022-08-26T00:39:31.388Z,54.70
2022-08-26T00:42:00.570Z,54.80
2022-08-26T00:44:28.612Z,54.50
2022-08-26T00:46:58.891Z,54.80
2022-08-26T00:49:30.404Z,55.00
2022-08-26T00:52:00.247Z,55.00
2022-08-26T00:54:29.089Z,55.00
2022-08-26T00:56:59.829Z,55.20
2022-08-26T00:59:28.100Z,54.90
2022-08-26T01:01:56.133Z,55.30
2022-08-26T01:04:24.469Z,55.40
2022-08-26T01:06:54.646Z,55.50
2022-08-26T01:09:24.273Z,55.60
2022-08-26T01:11:54.080Z,55.70
2022-08-26T01:14:22.303Z,56.10
2022-08-26T01:16:50.341Z,55.70
2022-08-26T01:19:21.632Z,56.10
2022-08-26T01:21:51.111Z,55.90
2022-08-26T01:24:20.624Z,55.90
2022-08-26T01:26:48.664Z,56.10
2022-08-26T01:29:19.044Z,56.30
2022-08-26T01:31:49.743Z,56.30
2022-08-26T01:34:21.095Z,57.00
2022-08-26T01:36:51.528Z,56.50
2022-08-26T01:39:21.444Z,56.50
2022-08-26T01:41:53.656Z,56.60
2022-08-26T01:44:24.729Z,56.50
2022-08-26T01:46:52.729Z,56.50
2022-08-26T01:49:20.673Z,56.50
2022-08-26T01:51:49.146Z,56.50
2022-08-26T01:54:17.322Z,56.60
2022-08-26T01:56:50.332Z,56.50
2022-08-26T01:59:18.385Z,56.70
2022-08-26T02:01:47.475Z,56.90
2022-08-26T02:04:17.769Z,56.80
2022-08-26T02:06:45.842Z,56.60
2022-08-26T02:09:13.858Z,56.70
2022-08-26T02:11:43.167Z,57.10
2022-08-26T02:14:13.819Z,57.10
2022-08-26T02:16:43.179Z,56.90
2022-08-26T02:19:17.198Z,56.80
2022-08-26T02:21:46.010Z,57.00
2022-08-26T02:24:20.909Z,57.00
2022-08-26T02:26:48.797Z,57.20
2022-08-26T02:29:23.704Z,57.30
2022-08-26T02:31:51.920Z,57.20
2022-08-26T02:34:21.497Z,57.60
2022-08-26T02:36:49.545Z,57.60
2022-08-26T02:39:22.224Z,58.30
2022-08-26T02:41:50.559Z,57.70
2022-08-26T02:44:20.018Z,57.80
2022-08-26T02:46:48.091Z,57.80
2022-08-26T02:49:17.278Z,58.20
2022-08-26T02:51:45.489Z,58.40
2022-08-26T02:54:13.553Z,58.30
2022-08-26T02:56:41.621Z,58.20
2022-08-26T02:59:12.422Z,58.20
2022-08-26T03:01:42.019Z,58.30
2022-08-26T03:04:11.126Z,58.30
2022-08-26T03:06:40.688Z,58.40
2022-08-26T03:09:09.561Z,58.80
2022-08-26T03:11:37.798Z,58.90
2022-08-26T03:14:05.931Z,59.10
2022-08-26T03:16:34.547Z,58.80
2022-08-26T03:19:04.022Z,58.80
2022-08-26T03:21:32.160Z,59.30
2022-08-26T03:24:00.294Z,59.00
2022-08-26T03:26:28.642Z,59.20
2022-08-26T03:29:15.143Z,59.10
2022-08-26T03:31:47.071Z,59.70
2022-08-26T03:34:17.217Z,61.20
2022-08-26T03:36:45.825Z,61.20
2022-08-26T03:39:13.896Z,61.30
2022-08-26T03:41:42.084Z,62.60
2022-08-26T03:44:10.093Z,62.40
2022-08-26T03:46:38.449Z,62.10
2022-08-26T03:49:06.982Z,63.00
2022-08-26T03:51:38.663Z,62.80
2022-08-26T03:54:08.220Z,62.40
2022-08-26T03:56:36.690Z,61.80
2022-08-26T03:59:07.484Z,62.00
2022-08-26T04:01:35.996Z,61.90
2022-08-26T04:04:05.155Z,64.40
2022-08-26T04:06:37.088Z,64.00
2022-08-26T04:09:06.632Z,63.80
2022-08-26T04:11:37.809Z,63.40
2022-08-26T04:14:09.089Z,66.40
2022-08-26T04:16:37.145Z,64.40
2022-08-26T04:19:05.251Z,66.10
2022-08-26T04:21:33.322Z,65.20
2022-08-26T04:24:03.566Z,65.40
2022-08-26T04:26:37.050Z,65.00
2022-08-26T04:29:08.986Z,64.70
2022-08-26T04:31:37.205Z,66.10
2022-08-26T04:34:05.455Z,66.90
2022-08-26T04:36:33.614Z,65.70
2022-08-26T04:39:03.649Z,65.40
2022-08-26T04:41:31.837Z,65.30
2022-08-26T04:43:59.777Z,65.40
2022-08-26T04:46:27.990Z,65.00
2022-08-26T04:48:56.428Z,65.00
2022-08-26T04:51:27.931Z,65.10
2022-08-26T04:53:57.268Z,66.00
2022-08-26T04:56:27.507Z,65.00
2022-08-26T04:58:56.599Z,65.10
2022-08-26T05:01:24.722Z,65.00
2022-08-26T05:03:52.915Z,65.60
2022-08-26T05:06:21.225Z,66.20
2022-08-26T05:08:50.249Z,65.70
2022-08-26T05:11:18.283Z,65.60
2022-08-26T05:13:48.104Z,67.20
2022-08-26T05:16:16.666Z,67.00
2022-08-26T05:18:45.799Z,66.60
2022-08-26T05:21:18.859Z,65.70
2022-08-26T05:23:46.943Z,65.30
2022-08-26T05:26:17.363Z,65.20
2022-08-26T05:28:54.913Z,65.30
2022-08-26T05:31:25.174Z,65.20
2022-08-26T05:33:53.664Z,65.70
2022-08-26T05:36:22.973Z,66.70
2022-08-26T05:38:50.936Z,66.90
2022-08-26T05:41:19.898Z,66.50
2022-08-26T05:43:47.620Z,65.80
2022-08-26T05:46:18.558Z,66.00
2022-08-26T05:48:46.947Z,65.80
2022-08-26T05:51:15.331Z,65.30
2022-08-26T05:53:54.870Z,65.20
2022-08-26T05:56:24.907Z,65.20
2022-08-26T05:58:53.151Z,64.70
2022-08-26T06:01:23.580Z,64.80
2022-08-26T06:03:53.309Z,65.80
2022-08-26T06:06:27.824Z,65.90
2022-08-26T06:08:57.997Z,66.00
2022-08-26T06:11:26.497Z,65.50
2022-08-26T06:13:54.587Z,64.80
2022-08-26T06:16:24.668Z,64.80
2022-08-26T06:18:53.605Z,64.80
2022-08-26T06:21:23.610Z,64.60
2022-08-26T06:24:09.994Z,64.80
2022-08-26T06:26:38.249Z,65.10
2022-08-26T06:29:06.545Z,65.60
2022-08-26T06:31:36.439Z,66.60
2022-08-26T06:34:10.731Z,65.90
2022-08-26T06:36:39.495Z,66.90
2022-08-26T06:39:09.502Z,66.20
2022-08-26T06:41:43.137Z,65.40
2022-08-26T06:44:11.462Z,64.60
2022-08-26T06:46:41.033Z,64.40
2022-08-26T06:49:09.111Z,67.90
2022-08-26T06:51:39.393Z,69.10
2022-08-26T06:54:07.692Z,70.70
2022-08-26T06:56:37.358Z,72.80
2022-08-26T06:59:07.734Z,70.60
2022-08-26T07:01:36.830Z,68.70
2022-08-26T07:04:10.731Z,68.40
2022-08-26T07:06:40.544Z,67.70
2022-08-26T07:09:09.863Z,67.50
2022-08-26T07:11:38.616Z,66.50
2022-08-26T07:14:06.859Z,64.80
2022-08-26T07:16:36.015Z,64.50
2022-08-26T07:19:10.878Z,64.60
2022-08-26T07:21:42.076Z,67.00
2022-08-26T07:24:11.067Z,67.70
2022-08-26T07:26:43.021Z,68.80
2022-08-26T07:29:11.640Z,67.60
2022-08-26T07:31:42.700Z,66.80
2022-08-26T07:34:11.333Z,65.70
2022-08-26T07:36:40.554Z,65.30
2022-08-26T07:39:08.978Z,65.70
2022-08-26T07:41:37.649Z,64.50
2022-08-26T07:44:06.392Z,65.80
2022-08-26T07:46:36.575Z,65.70
2022-08-26T07:49:04.645Z,65.70
2022-08-26T07:51:33.360Z,63.80
2022-08-26T07:54:02.933Z,62.60
2022-08-26T07:56:30.926Z,61.40
2022-08-26T07:58:59.473Z,61.50
2022-08-26T08:01:29.162Z,59.60
2022-08-26T08:03:59.017Z,60.70
2022-08-26T08:06:28.263Z,59.20
2022-08-26T08:08:56.480Z,58.40
2022-08-26T08:11:27.303Z,58.20
2022-08-26T08:13:56.247Z,60.50
2022-08-26T08:16:29.469Z,59.20
2022-08-26T08:19:00.251Z,57.70
2022-08-26T08:21:28.967Z,58.50
2022-08-26T08:23:57.563Z,58.80
2022-08-26T08:26:27.231Z,57.60
2022-08-26T08:28:56.119Z,56.60
2022-08-26T08:31:54.506Z,58.00
2022-08-26T08:34:13.711Z,57.00
2022-08-26T08:36:41.878Z,56.10
2022-08-26T08:39:10.611Z,56.30
2022-08-26T08:41:46.668Z,55.40
2022-08-26T08:44:18.512Z,54.40
2022-08-26T08:46:46.519Z,55.00
2022-08-26T08:49:14.668Z,55.20
2022-08-26T08:51:45.792Z,55.00
2022-08-26T08:54:14.382Z,55.60
2022-08-26T08:56:47.091Z,56.50
2022-08-26T08:59:17.121Z,54.60
2022-08-26T09:01:56.662Z,54.20
2022-08-26T09:04:44.469Z,54.00
2022-08-26T09:07:14.797Z,52.90
2022-08-26T09:09:48.592Z,52.10
2022-08-26T09:12:20.598Z,51.50
2022-08-26T09:14:59.312Z,50.90
2022-08-26T09:17:32.688Z,51.50
2022-08-26T09:20:07.270Z,52.10
2022-08-26T09:22:40.370Z,52.40
2022-08-26T09:25:13.627Z,54.20
2022-08-26T09:27:45.026Z,52.40
2022-08-26T09:30:16.460Z,53.90
2022-08-26T09:32:56.286Z,53.40
2022-08-26T09:35:26.569Z,53.60
2022-08-26T09:38:02.316Z,54.90
2022-08-26T09:40:35.297Z,56.10
2022-08-26T09:46:19.550Z,54.60
2022-08-26T09:48:47.968Z,54.40
2022-08-26T09:51:33.280Z,55.40
2022-08-26T09:54:02.771Z,57.40
2022-08-26T09:56:32.728Z,58.10
2022-08-26T09:59:02.381Z,56.00
2022-08-26T10:01:32.886Z,56.00
2022-08-26T10:04:08.364Z,56.00
2022-08-26T10:06:39.470Z,55.50
2022-08-26T10:09:09.697Z,57.10
2022-08-26T10:11:41.611Z,57.90
2022-08-26T10:14:13.814Z,55.70
2022-08-26T10:16:46.410Z,54.50
2022-08-26T10:19:16.502Z,56.30
2022-08-26T10:21:53.078Z,54.60
2022-08-26T10:24:23.635Z,54.80
2022-08-26T10:26:57.939Z,54.60
2022-08-26T10:29:31.006Z,56.40
2022-08-26T10:32:03.423Z,53.90
2022-08-26T10:34:32.676Z,53.70
2022-08-26T10:37:13.761Z,55.00
2022-08-26T10:39:49.089Z,53.20
2022-08-26T10:42:20.750Z,52.20
2022-08-26T10:44:53.338Z,52.80
2022-08-26T10:47:29.728Z,54.20
2022-08-26T10:50:02.938Z,52.30
2022-08-26T10:52:36.535Z,52.50
2022-08-26T10:55:07.338Z,51.30
2022-08-26T10:57:40.878Z,51.00
2022-08-26T11:00:28.354Z,49.10
2022-08-26T11:02:58.882Z,50.60
2022-08-26T11:05:27.168Z,51.00
2022-08-26T11:07:58.743Z,49.80
2022-08-26T11:11:03.452Z,51.00
2022-08-26T11:14:05.030Z,50.10
2022-08-26T11:16:36.533Z,50.00
2022-08-26T11:19:12.816Z,49.80
2022-08-26T11:21:47.722Z,50.20
2022-08-26T11:24:40.063Z,49.70
2022-08-26T11:27:12.336Z,48.60
2022-08-26T11:29:57.398Z,48.00
2022-08-26T11:32:27.976Z,48.60
2022-08-26T11:34:57.877Z,48.30
2022-08-26T11:37:30.920Z,47.60
2022-08-26T11:40:00.634Z,48.00
2022-08-26T11:42:34.378Z,45.60
2022-08-26T11:45:04.865Z,44.70
2022-08-26T11:47:35.272Z,42.70
2022-08-26T11:50:14.360Z,41.60
2022-08-26T11:52:42.395Z,42.40
2022-08-26T11:55:11.761Z,40.10
2022-08-26T11:57:47.094Z,38.50
2022-08-26T12:00:22.572Z,36.50
2022-08-26T12:02:53.484Z,37.90
2022-08-26T12:05:24.292Z,37.50
2022-08-26T12:07:55.224Z,36.40
2022-08-26T12:10:29.966Z,35.10
2022-08-26T12:12:59.046Z,38.00
2022-08-26T12:15:29.666Z,39.50
2022-08-26T12:17:59.356Z,41.00
2022-08-26T12:20:46.002Z,39.30
2022-08-26T12:23:28.018Z,40.20
2022-08-26T12:26:04.896Z,42.10
2022-08-26T12:28:33.209Z,42.20
2022-08-26T12:31:02.617Z,42.90
2022-08-26T12:33:32.202Z,45.70
2022-08-26T12:36:02.063Z,46.60
2022-08-26T12:38:30.036Z,43.80
2022-08-26T12:40:58.227Z,43.50
2022-08-26T12:43:41.728Z,43.60
2022-08-26T12:46:11.273Z,42.70
2022-08-26T12:48:42.704Z,41.00
2022-08-26T12:51:18.448Z,43.80
2022-08-26T12:53:46.475Z,39.30
2022-08-26T12:56:27.814Z,41.90
2022-08-26T12:59:07.289Z,43.40
2022-08-26T13:01:40.703Z,45.50
2022-08-26T13:04:25.999Z,45.90
2022-08-26T13:07:29.574Z,46.80
2022-08-26T13:09:58.564Z,48.30
2022-08-26T13:12:28.422Z,48.20
2022-08-26T13:14:57.604Z,48.80
2022-08-26T13:17:25.743Z,49.10
2022-08-26T13:19:57.166Z,49.00
2022-08-26T13:22:28.074Z,49.00
2022-08-26T13:24:57.298Z,49.90
2022-08-26T13:27:26.293Z,50.90
2022-08-26T13:29:54.414Z,50.90
2022-08-26T13:32:25.564Z,51.30
2022-08-26T13:34:57.764Z,52.00
2022-08-26T13:37:34.762Z,53.00
2022-08-26T13:40:04.678Z,53.50
2022-08-26T13:42:32.798Z,52.60
2022-08-26T13:45:02.586Z,52.60
2022-08-26T13:47:30.675Z,53.00
2022-08-26T13:50:00.166Z,53.10
2022-08-26T13:52:30.538Z,53.30
2022-08-26T13:54:59.234Z,53.40
2022-08-26T13:57:28.312Z,53.00
2022-08-26T13:59:58.994Z,53.00
2022-08-26T14:02:29.151Z,53.80
2022-08-26T14:04:57.228Z,54.00
2022-08-26T14:07:26.819Z,54.90
2022-08-26T14:09:54.985Z,54.60
2022-08-26T14:12:23.053Z,53.50
2022-08-26T14:14:51.205Z,53.20
2022-08-26T14:17:20.571Z,53.80
2022-08-26T14:19:49.380Z,54.80
2022-08-26T14:22:17.860Z,55.00
2022-08-26T14:24:47.434Z,55.40
2022-08-26T14:27:15.490Z,55.40
2022-08-26T14:29:43.594Z,56.30
2022-08-26T14:32:13.509Z,55.20
2022-08-26T14:34:41.924Z,53.90
2022-08-26T14:37:13.512Z,52.10
2022-08-26T14:39:43.312Z,51.30
2022-08-26T14:42:21.644Z,51.80
2022-08-26T14:44:51.188Z,50.80
2022-08-26T14:47:19.105Z,50.50
2022-08-26T14:49:47.117Z,49.20
2022-08-26T14:52:15.190Z,47.10
2022-08-26T14:54:42.148Z,46.40
2022-08-26T14:57:13.450Z,44.90
2022-08-26T14:59:43.322Z,42.90
2022-08-26T15:02:32.848Z,41.20
2022-08-26T15:05:02.190Z,41.60
2022-08-26T15:07:30.083Z,41.00
2022-08-26T15:09:58.161Z,41.60
2022-08-26T15:12:27.870Z,41.20
2022-08-26T15:14:55.872Z,42.00
2022-08-26T15:17:24.198Z,42.00
2022-08-26T15:19:52.225Z,43.40
2022-08-26T15:22:20.204Z,43.20
2022-08-26T15:24:48.291Z,43.80
2022-08-26T15:27:21.587Z,44.00
2022-08-26T15:29:51.781Z,45.20
2022-08-26T15:32:19.868Z,45.90
2022-08-26T15:34:49.902Z,45.50
2022-08-26T15:37:18.039Z,45.20
2022-08-26T15:39:46.086Z,45.50
2022-08-26T15:42:14.089Z,45.90
2022-08-26T15:44:44.624Z,45.10
2022-08-26T15:47:14.120Z,45.30
2022-08-26T15:49:42.221Z,45.40
2022-08-26T15:52:10.318Z,45.20
2022-08-26T15:54:39.612Z,45.20
2022-08-26T15:57:11.502Z,45.60
2022-08-26T15:59:40.497Z,46.60
2022-08-26T16:02:08.552Z,47.90
2022-08-26T16:04:38.065Z,48.60
2022-08-26T16:07:06.156Z,48.90
2022-08-26T16:09:34.202Z,49.60
2022-08-26T16:12:04.617Z,49.80
2022-08-26T16:14:32.574Z,49.00
2022-08-26T16:17:00.593Z,49.00
2022-08-26T16:19:28.478Z,49.20
2022-08-26T16:21:57.968Z,49.50
2022-08-26T16:24:30.201Z,49.80
2022-08-26T16:26:58.656Z,49.80
2022-08-26T16:29:26.582Z,49.50
2022-08-26T16:31:54.669Z,49.50
2022-08-26T16:34:22.832Z,50.10
2022-08-26T16:36:50.739Z,50.40
2022-08-26T16:39:20.023Z,50.00
2022-08-26T16:41:48.035Z,51.20
2022-08-26T16:44:16.048Z,50.80
2022-08-26T16:46:44.652Z,52.00
2022-08-26T16:49:12.591Z,51.40
2022-08-26T16:51:40.612Z,52.70
2022-08-26T16:54:08.838Z,52.30
2022-08-26T16:56:38.161Z,52.80
2022-08-26T16:59:06.683Z,52.00
2022-08-26T17:01:34.728Z,51.50
2022-08-26T17:04:02.829Z,52.10
2022-08-26T17:06:30.811Z,52.90
2022-08-26T17:08:58.744Z,52.50
2022-08-26T17:11:26.642Z,51.60
2022-08-26T17:13:56.972Z,52.40
2022-08-26T17:16:27.008Z,52.80
2022-08-26T17:18:56.294Z,52.10
2022-08-26T17:21:24.309Z,51.80
2022-08-26T17:23:52.275Z,52.00
2022-08-26T17:26:20.140Z,51.30
2022-08-26T17:28:48.153Z,51.70
2022-08-26T17:31:18.008Z,51.80
2022-08-26T17:33:50.302Z,51.80
2022-08-26T17:36:22.592Z,51.80
2022-08-26T17:38:50.487Z,52.30
2022-08-26T17:41:22.156Z,51.70
2022-08-26T17:43:50.152Z,51.80
2022-08-26T17:46:19.650Z,51.70
2022-08-26T17:48:48.362Z,52.00
2022-08-26T17:51:19.205Z,52.50
2022-08-26T17:53:47.805Z,53.70
2022-08-26T17:56:16.405Z,53.10
2022-08-26T17:58:47.442Z,54.10
2022-08-26T18:01:16.144Z,55.40
2022-08-26T18:03:45.656Z,54.80
2022-08-26T18:06:14.297Z,54.00
2022-08-26T18:08:42.247Z,53.50
2022-08-26T18:11:10.730Z,54.00
2022-08-26T18:13:38.546Z,54.30
2022-08-26T18:16:15.622Z,54.70
2022-08-26T18:18:45.345Z,55.10
2022-08-26T18:21:14.005Z,55.50
2022-08-26T18:23:42.052Z,56.30
2022-08-26T18:26:11.346Z,56.30
2022-08-26T18:28:40.478Z,56.10
2022-08-26T18:31:09.014Z,55.50
2022-08-26T18:33:37.034Z,56.50
2022-08-26T18:36:06.865Z,56.20
2022-08-26T18:38:34.943Z,55.60
2022-08-26T18:41:04.785Z,55.30
2022-08-26T18:43:32.825Z,56.30
2022-08-26T18:46:04.533Z,57.30
2022-08-26T18:48:32.695Z,55.80
2022-08-26T18:51:00.747Z,55.90
2022-08-26T18:53:30.653Z,55.30
2022-08-26T18:55:59.918Z,55.50
2022-08-26T18:58:28.246Z,55.10
2022-08-26T19:00:56.202Z,55.40
2022-08-26T19:03:24.203Z,54.90
2022-08-26T19:05:52.573Z,54.50
2022-08-26T19:08:20.601Z,55.60
2022-08-26T19:10:51.935Z,55.30
2022-08-26T19:13:21.202Z,55.90
2022-08-26T19:15:49.488Z,54.40
2022-08-26T19:18:17.758Z,56.40
2022-08-26T19:20:47.973Z,55.40
2022-08-26T19:23:30.868Z,54.90
2022-08-26T19:26:03.533Z,56.00
2022-08-26T19:28:31.734Z,56.10
2022-08-26T19:31:00.983Z,55.80
2022-08-26T19:33:29.255Z,55.40
2022-08-26T19:35:57.358Z,56.10
2022-08-26T19:38:25.499Z,56.60
2022-08-26T19:40:56.294Z,56.10
2022-08-26T19:43:25.995Z,56.40
2022-08-26T19:45:56.561Z,57.50
2022-08-26T19:48:24.781Z,58.00
2022-08-26T19:51:14.863Z,58.30
2022-08-26T19:53:43.566Z,57.50
2022-08-26T19:56:11.565Z,56.50
2022-08-26T19:58:41.541Z,55.90
2022-08-26T20:01:13.832Z,56.10
2022-08-26T20:03:44.722Z,56.30
2022-08-26T20:06:13.853Z,58.30
2022-08-26T20:08:42.457Z,58.10
2022-08-26T20:11:13.408Z,57.60
2022-08-26T20:13:42.747Z,57.00
2022-08-26T20:16:12.278Z,56.20
2022-08-26T20:18:57.957Z,57.90
2022-08-26T20:21:29.366Z,58.40
2022-08-26T20:23:58.433Z,58.60
2022-08-26T20:26:27.622Z,57.70
2022-08-26T20:28:57.217Z,56.30
2022-08-26T20:31:25.412Z,59.00
2022-08-26T20:33:53.669Z,58.60
2022-08-26T20:36:22.458Z,59.40
2022-08-26T20:38:50.794Z,59.00
2022-08-26T20:41:18.946Z,58.80
2022-08-26T20:43:47.290Z,58.10
2022-08-26T20:46:18.190Z,57.10
2022-08-26T20:48:47.469Z,56.30
2022-08-26T20:51:15.512Z,56.70
2022-08-26T20:53:44.283Z,57.70
2022-08-26T20:56:13.167Z,57.50
2022-08-26T20:58:41.258Z,57.20
2022-08-26T21:01:09.412Z,57.80
2022-08-26T21:03:39.458Z,57.60
2022-08-26T21:06:08.241Z,58.00
2022-08-26T21:08:38.713Z,57.70
2022-08-26T21:11:08.879Z,58.20
2022-08-26T21:13:54.493Z,58.70
2022-08-26T21:16:26.549Z,57.90
2022-08-26T21:18:56.117Z,57.80
2022-08-26T21:21:25.269Z,57.20
2022-08-26T21:23:53.495Z,58.30
2022-08-26T21:26:21.569Z,57.70
2022-08-26T21:28:49.664Z,57.40
2022-08-26T21:31:19.938Z,59.60
2022-08-26T21:33:48.141Z,59.00
2022-08-26T21:36:19.416Z,59.10
2022-08-26T21:38:47.587Z,59.30
2022-08-26T21:41:18.699Z,59.20
2022-08-26T21:43:46.726Z,58.90
2022-08-26T21:46:16.719Z,58.30
2022-08-26T21:48:49.936Z,59.80
2022-08-26T21:51:20.898Z,60.10
2022-08-26T21:53:48.968Z,62.00
2022-08-26T21:56:17.932Z,60.10
2022-08-26T21:58:46.032Z,59.60
2022-08-26T22:01:15.476Z,58.70
2022-08-26T22:03:47.457Z,59.00
2022-08-26T22:06:16.223Z,59.10
2022-08-26T22:08:45.543Z,58.50
2022-08-26T22:11:13.570Z,57.10
2022-08-26T22:13:41.801Z,58.70
2022-08-26T22:16:10.007Z,58.80
2022-08-26T22:18:38.264Z,59.10
2022-08-26T22:21:07.188Z,59.60
2022-08-26T22:23:35.687Z,59.20
2022-08-26T22:26:05.093Z,59.10
2022-08-26T22:28:32.924Z,58.60
2022-08-26T22:31:01.894Z,58.50
2022-08-26T22:33:30.233Z,58.90
2022-08-26T22:35:58.069Z,58.90
2022-08-26T22:38:25.931Z,59.50
2022-08-26T22:40:56.554Z,59.40
2022-08-26T22:43:26.280Z,59.30
2022-08-26T22:45:54.382Z,59.00
2022-08-26T22:48:23.989Z,60.40
2022-08-26T22:50:52.208Z,60.60
2022-08-26T22:53:20.250Z,60.50
2022-08-26T22:55:48.345Z,60.60
2022-08-26T22:58:17.163Z,59.70
2022-08-26T23:00:46.861Z,59.50
2022-08-26T23:03:15.262Z,60.20
2022-08-26T23:05:43.459Z,59.40
2022-08-26T23:08:12.540Z,59.40
2022-08-26T23:10:41.624Z,60.90
2022-08-26T23:13:09.699Z,60.70
2022-08-26T23:15:37.949Z,61.00
2022-08-26T23:18:07.398Z,58.90
2022-08-26T23:20:35.559Z,60.00
2022-08-26T23:23:03.518Z,60.50
2022-08-26T23:25:32.480Z,58.50
2022-08-26T23:28:00.768Z,58.00
2022-08-26T23:30:29.793Z,58.80
2022-08-26T23:32:57.998Z,58.30
2022-08-26T23:35:26.427Z,58.60
2022-08-26T23:37:54.637Z,57.70
2022-08-26T23:40:29.744Z,57.40
2022-08-26T23:42:58.382Z,57.50
2022-08-26T23:45:26.891Z,56.80
2022-08-26T23:47:55.091Z,57.00
2022-08-26T23:50:44.761Z,57.20
2022-08-26T23:53:19.431Z,55.80
2022-08-26T23:55:48.033Z,56.80
2022-08-26T23:58:16.256Z,55.70
